sensor_id;sensor_type;location;lat;lon;timestamp;pressure;altitude;pressure_sealevel;temperature;humidity
49102;BME280;34913;47.520;19.186;2023-12-20T00:00:05;100077.34;;;-2.05;100.00
49102;BME280;34913;47.520;19.186;2023-12-20T00:02:31;100076.00;;;-1.90;100.00
49102;BME280;34913;47.520;19.186;2023-12-20T00:04:56;100059.28;;;-1.81;100.00
49102;BME280;34913;47.520;19.186;2023-12-20T00:07:21;100068.66;;;-1.77;100.00
49102;BME280;34913;47.520;19.186;2023-12-20T00:09:47;100072.41;;;-1.86;100.00
49102;BME280;34913;47.520;19.186;2023-12-20T00:12:12;100077.47;;;-1.81;100.00
49102;BME280;34913;47.520;19.186;2023-12-20T00:14:37;100079.19;;;-1.80;100.00
49102;BME280;34913;47.520;19.186;2023-12-20T00:17:03;100057.53;;;-1.82;100.00
49102;BME280;34913;47.520;19.186;2023-12-20T00:19:28;100054.19;;;-1.86;100.00
49102;BME280;34913;47.520;19.186;2023-12-20T00:21:54;100062.31;;;-1.69;100.00
49102;BME280;34913;47.520;19.186;2023-12-20T00:24:19;100053.97;;;-1.52;100.00
49102;BME280;34913;47.520;19.186;2023-12-20T00:26:45;100058.94;;;-1.44;100.00
49102;BME280;34913;47.520;19.186;2023-12-20T00:29:11;100044.22;;;-1.45;100.00
49102;BME280;34913;47.520;19.186;2023-12-20T00:31:36;100039.63;;;-1.37;100.00
49102;BME280;34913;47.520;19.186;2023-12-20T00:34:01;100038.72;;;-1.36;100.00
49102;BME280;34913;47.520;19.186;2023-12-20T00:36:27;100029.13;;;-1.34;100.00
49102;BME280;34913;47.520;19.186;2023-12-20T00:38:52;100026.66;;;-1.38;100.00
49102;BME280;34913;47.520;19.186;2023-12-20T00:41:17;100026.13;;;-1.48;100.00
49102;BME280;34913;47.520;19.186;2023-12-20T00:43:43;100022.53;;;-1.46;100.00
49102;BME280;34913;47.520;19.186;2023-12-20T00:46:09;100014.88;;;-1.50;100.00
49102;BME280;34913;47.520;19.186;2023-12-20T00:48:34;100009.72;;;-1.52;100.00
49102;BME280;34913;47.520;19.186;2023-12-20T00:51:00;99999.00;;;-1.43;100.00
49102;BME280;34913;47.520;19.186;2023-12-20T00:53:25;99993.53;;;-1.35;100.00
49102;BME280;34913;47.520;19.186;2023-12-20T00:55:50;99987.03;;;-1.22;100.00
49102;BME280;34913;47.520;19.186;2023-12-20T00:58:16;99981.81;;;-1.22;100.00
49102;BME280;34913;47.520;19.186;2023-12-20T01:00:42;99991.84;;;-1.11;100.00
49102;BME280;34913;47.520;19.186;2023-12-20T01:03:08;99996.31;;;-1.15;100.00
49102;BME280;34913;47.520;19.186;2023-12-20T01:05:33;99996.00;;;-1.05;100.00
49102;BME280;34913;47.520;19.186;2023-12-20T01:07:58;99989.41;;;-0.91;100.00
49102;BME280;34913;47.520;19.186;2023-12-20T01:10:24;99982.28;;;-0.86;100.00
49102;BME280;34913;47.520;19.186;2023-12-20T01:12:53;99982.09;;;-0.81;100.00
49102;BME280;34913;47.520;19.186;2023-12-20T01:15:18;99980.41;;;-0.82;100.00
49102;BME280;34913;47.520;19.186;2023-12-20T01:17:43;99978.69;;;-0.83;100.00
49102;BME280;34913;47.520;19.186;2023-12-20T01:20:09;99987.81;;;-0.95;100.00
49102;BME280;34913;47.520;19.186;2023-12-20T01:22:35;99982.41;;;-1.14;100.00
49102;BME280;34913;47.520;19.186;2023-12-20T01:25:01;99975.59;;;-1.18;100.00
49102;BME280;34913;47.520;19.186;2023-12-20T01:27:27;99968.84;;;-1.23;100.00
49102;BME280;34913;47.520;19.186;2023-12-20T01:29:53;99966.56;;;-1.32;100.00
49102;BME280;34913;47.520;19.186;2023-12-20T01:32:18;99959.66;;;-1.33;100.00
49102;BME280;34913;47.520;19.186;2023-12-20T01:34:43;99957.91;;;-1.33;100.00
49102;BME280;34913;47.520;19.186;2023-12-20T01:37:09;99953.28;;;-1.25;100.00
49102;BME280;34913;47.520;19.186;2023-12-20T01:39:34;99940.34;;;-1.28;100.00
49102;BME280;34913;47.520;19.186;2023-12-20T01:41:59;99936.84;;;-1.27;100.00
49102;BME280;34913;47.520;19.186;2023-12-20T01:44:24;99929.28;;;-1.33;100.00
49102;BME280;34913;47.520;19.186;2023-12-20T01:46:50;99922.97;;;-1.27;100.00
49102;BME280;34913;47.520;19.186;2023-12-20T01:49:16;99915.97;;;-1.25;100.00
49102;BME280;34913;47.520;19.186;2023-12-20T01:51:42;99918.41;;;-1.21;100.00
49102;BME280;34913;47.520;19.186;2023-12-20T01:54:08;99912.94;;;-1.13;100.00
49102;BME280;34913;47.520;19.186;2023-12-20T01:56:34;99915.38;;;-1.08;100.00
49102;BME280;34913;47.520;19.186;2023-12-20T01:59:00;99895.31;;;-1.06;100.00
49102;BME280;34913;47.520;19.186;2023-12-20T02:01:25;99899.28;;;-0.96;100.00
49102;BME280;34913;47.520;19.186;2023-12-20T02:03:53;99886.22;;;-0.95;100.00
49102;BME280;34913;47.520;19.186;2023-12-20T02:06:19;99881.47;;;-1.07;100.00
49102;BME280;34913;47.520;19.186;2023-12-20T02:08:46;99881.38;;;-1.05;100.00
49102;BME280;34913;47.520;19.186;2023-12-20T02:11:12;99878.22;;;-0.90;100.00
49102;BME280;34913;47.520;19.186;2023-12-20T02:13:37;99877.53;;;-0.95;100.00
49102;BME280;34913;47.520;19.186;2023-12-20T02:16:03;99867.38;;;-1.01;100.00
49102;BME280;34913;47.520;19.186;2023-12-20T02:18:29;99863.22;;;-1.07;100.00
49102;BME280;34913;47.520;19.186;2023-12-20T02:20:54;99858.06;;;-1.08;100.00
49102;BME280;34913;47.520;19.186;2023-12-20T02:23:20;99866.91;;;-1.13;100.00
49102;BME280;34913;47.520;19.186;2023-12-20T02:25:46;99856.75;;;-1.20;100.00
49102;BME280;34913;47.520;19.186;2023-12-20T02:28:11;99847.72;;;-1.33;100.00
49102;BME280;34913;47.520;19.186;2023-12-20T02:30:37;99846.00;;;-1.34;100.00
49102;BME280;34913;47.520;19.186;2023-12-20T02:33:03;99850.41;;;-1.36;100.00
49102;BME280;34913;47.520;19.186;2023-12-20T02:35:31;99841.59;;;-1.32;100.00
49102;BME280;34913;47.520;19.186;2023-12-20T02:37:57;99841.69;;;-1.35;100.00
49102;BME280;34913;47.520;19.186;2023-12-20T02:40:22;99841.03;;;-1.41;100.00
49102;BME280;34913;47.520;19.186;2023-12-20T02:42:47;99846.06;;;-1.36;100.00
49102;BME280;34913;47.520;19.186;2023-12-20T02:45:13;99841.38;;;-1.26;100.00
49102;BME280;34913;47.520;19.186;2023-12-20T02:47:38;99824.72;;;-1.22;100.00
49102;BME280;34913;47.520;19.186;2023-12-20T02:50:03;99828.50;;;-1.07;100.00
49102;BME280;34913;47.520;19.186;2023-12-20T02:52:29;99824.72;;;-0.99;100.00
49102;BME280;34913;47.520;19.186;2023-12-20T02:54:54;99818.16;;;-0.87;100.00
49102;BME280;34913;47.520;19.186;2023-12-20T02:57:19;99816.44;;;-0.87;100.00
49102;BME280;34913;47.520;19.186;2023-12-20T02:59:45;99811.38;;;-0.91;100.00
49102;BME280;34913;47.520;19.186;2023-12-20T03:02:10;99813.94;;;-0.90;100.00
49102;BME280;34913;47.520;19.186;2023-12-20T03:04:35;99810.69;;;-0.95;100.00
49102;BME280;34913;47.520;19.186;2023-12-20T03:07:01;99804.84;;;-1.01;100.00
49102;BME280;34913;47.520;19.186;2023-12-20T03:09:26;99813.78;;;-1.08;100.00
49102;BME280;34913;47.520;19.186;2023-12-20T03:11:52;99799.81;;;-1.06;100.00
49102;BME280;34913;47.520;19.186;2023-12-20T03:14:17;99808.72;;;-0.90;100.00
49102;BME280;34913;47.520;19.186;2023-12-20T03:16:47;99818.44;;;-0.93;100.00
49102;BME280;34913;47.520;19.186;2023-12-20T03:19:12;99819.44;;;-0.97;100.00
49102;BME280;34913;47.520;19.186;2023-12-20T03:21:38;99810.06;;;-1.01;100.00
49102;BME280;34913;47.520;19.186;2023-12-20T03:24:03;99806.34;;;-0.96;100.00
49102;BME280;34913;47.520;19.186;2023-12-20T03:26:28;99819.00;;;-1.08;100.00
49102;BME280;34913;47.520;19.186;2023-12-20T03:28:54;99815.06;;;-0.97;100.00
49102;BME280;34913;47.520;19.186;2023-12-20T03:31:19;99810.06;;;-1.01;100.00
49102;BME280;34913;47.520;19.186;2023-12-20T03:33:46;99815.84;;;-1.17;100.00
49102;BME280;34913;47.520;19.186;2023-12-20T03:36:11;99823.25;;;-1.29;100.00
49102;BME280;34913;47.520;19.186;2023-12-20T03:38:36;99811.63;;;-1.21;100.00
49102;BME280;34913;47.520;19.186;2023-12-20T03:41:02;99809.16;;;-1.24;100.00
49102;BME280;34913;47.520;19.186;2023-12-20T03:43:27;99815.09;;;-1.20;100.00
49102;BME280;34913;47.520;19.186;2023-12-20T03:45:52;99817.25;;;-1.08;100.00
49102;BME280;34913;47.520;19.186;2023-12-20T03:48:18;99820.28;;;-0.97;100.00
49102;BME280;34913;47.520;19.186;2023-12-20T03:50:43;99819.72;;;-1.05;100.00
49102;BME280;34913;47.520;19.186;2023-12-20T03:53:08;99814.25;;;-1.44;100.00
49102;BME280;34913;47.520;19.186;2023-12-20T03:55:34;99815.78;;;-1.38;100.00
49102;BME280;34913;47.520;19.186;2023-12-20T03:57:59;99810.06;;;-1.48;100.00
49102;BME280;34913;47.520;19.186;2023-12-20T04:00:24;99808.38;;;-1.74;100.00
49102;BME280;34913;47.520;19.186;2023-12-20T04:02:50;99810.19;;;-1.76;100.00
49102;BME280;34913;47.520;19.186;2023-12-20T04:05:15;99808.16;;;-1.68;100.00
49102;BME280;34913;47.520;19.186;2023-12-20T04:07:41;99810.50;;;-1.60;100.00
49102;BME280;34913;47.520;19.186;2023-12-20T04:10:06;99794.78;;;-1.57;100.00
49102;BME280;34913;47.520;19.186;2023-12-20T04:12:32;99792.78;;;-1.51;100.00
49102;BME280;34913;47.520;19.186;2023-12-20T04:14:57;99791.78;;;-1.47;100.00
49102;BME280;34913;47.520;19.186;2023-12-20T04:17:23;99798.91;;;-1.52;100.00
49102;BME280;34913;47.520;19.186;2023-12-20T04:19:49;99792.63;;;-1.46;100.00
49102;BME280;34913;47.520;19.186;2023-12-20T04:22:15;99794.97;;;-1.38;100.00
49102;BME280;34913;47.520;19.186;2023-12-20T04:24:40;99778.00;;;-1.49;100.00
49102;BME280;34913;47.520;19.186;2023-12-20T04:27:07;99769.06;;;-1.42;100.00
49102;BME280;34913;47.520;19.186;2023-12-20T04:29:33;99769.00;;;-1.40;100.00
49102;BME280;34913;47.520;19.186;2023-12-20T04:31:58;99769.41;;;-1.29;100.00
49102;BME280;34913;47.520;19.186;2023-12-20T04:34:23;99770.09;;;-1.24;100.00
49102;BME280;34913;47.520;19.186;2023-12-20T04:36:49;99765.53;;;-1.17;100.00
49102;BME280;34913;47.520;19.186;2023-12-20T04:39:14;99756.03;;;-1.20;100.00
49102;BME280;34913;47.520;19.186;2023-12-20T04:41:42;99750.06;;;-1.22;100.00
49102;BME280;34913;47.520;19.186;2023-12-20T04:44:08;99748.53;;;-1.27;100.00
49102;BME280;34913;47.520;19.186;2023-12-20T04:46:33;99740.28;;;-1.38;100.00
49102;BME280;34913;47.520;19.186;2023-12-20T04:48:58;99743.69;;;-1.36;100.00
49102;BME280;34913;47.520;19.186;2023-12-20T04:51:24;99735.72;;;-1.32;100.00
49102;BME280;34913;47.520;19.186;2023-12-20T04:53:49;99730.13;;;-1.23;100.00
49102;BME280;34913;47.520;19.186;2023-12-20T04:56:15;99708.09;;;-1.14;100.00
49102;BME280;34913;47.520;19.186;2023-12-20T04:58:40;99711.69;;;-0.95;100.00
49102;BME280;34913;47.520;19.186;2023-12-20T05:01:06;99712.84;;;-1.02;100.00
49102;BME280;34913;47.520;19.186;2023-12-20T05:03:32;99703.88;;;-0.95;100.00
49102;BME280;34913;47.520;19.186;2023-12-20T05:05:58;99695.53;;;-0.82;100.00
49102;BME280;34913;47.520;19.186;2023-12-20T05:08:23;99702.34;;;-0.78;100.00
49102;BME280;34913;47.520;19.186;2023-12-20T05:10:48;99697.91;;;-0.76;100.00
49102;BME280;34913;47.520;19.186;2023-12-20T05:13:14;99698.00;;;-0.79;100.00
49102;BME280;34913;47.520;19.186;2023-12-20T05:15:39;99684.13;;;-0.80;100.00
49102;BME280;34913;47.520;19.186;2023-12-20T05:18:04;99689.13;;;-0.96;100.00
49102;BME280;34913;47.520;19.186;2023-12-20T05:20:30;99689.19;;;-1.19;100.00
49102;BME280;34913;47.520;19.186;2023-12-20T05:22:55;99688.53;;;-1.24;100.00
49102;BME280;34913;47.520;19.186;2023-12-20T05:25:20;99687.44;;;-1.19;100.00
49102;BME280;34913;47.520;19.186;2023-12-20T05:27:46;99682.34;;;-1.22;100.00
49102;BME280;34913;47.520;19.186;2023-12-20T05:30:11;99690.91;;;-1.18;100.00
49102;BME280;34913;47.520;19.186;2023-12-20T05:32:37;99691.75;;;-1.18;100.00
49102;BME280;34913;47.520;19.186;2023-12-20T05:35:02;99702.66;;;-1.08;100.00
49102;BME280;34913;47.520;19.186;2023-12-20T05:37:28;99698.44;;;-0.90;100.00
49102;BME280;34913;47.520;19.186;2023-12-20T05:39:53;99699.91;;;-0.83;100.00
49102;BME280;34913;47.520;19.186;2023-12-20T05:42:19;99705.44;;;-0.91;100.00
49102;BME280;34913;47.520;19.186;2023-12-20T05:44:44;99694.69;;;-0.83;100.00
49102;BME280;34913;47.520;19.186;2023-12-20T05:47:09;99708.81;;;-0.89;100.00
49102;BME280;34913;47.520;19.186;2023-12-20T05:49:35;99695.75;;;-0.67;100.00
49102;BME280;34913;47.520;19.186;2023-12-20T05:52:00;99698.75;;;-0.76;100.00
49102;BME280;34913;47.520;19.186;2023-12-20T05:54:25;99686.50;;;-0.74;100.00
49102;BME280;34913;47.520;19.186;2023-12-20T05:56:51;99669.75;;;-0.68;100.00
49102;BME280;34913;47.520;19.186;2023-12-20T05:59:16;99670.47;;;-0.65;100.00
49102;BME280;34913;47.520;19.186;2023-12-20T06:01:41;99670.22;;;-0.59;100.00
49102;BME280;34913;47.520;19.186;2023-12-20T06:04:07;99659.66;;;-0.56;100.00
49102;BME280;34913;47.520;19.186;2023-12-20T06:06:32;99657.22;;;-0.40;100.00
49102;BME280;34913;47.520;19.186;2023-12-20T06:08:57;99645.19;;;-0.42;100.00
49102;BME280;34913;47.520;19.186;2023-12-20T06:11:23;99636.59;;;-0.44;100.00
49102;BME280;34913;47.520;19.186;2023-12-20T06:13:48;99655.75;;;-0.45;100.00
49102;BME280;34913;47.520;19.186;2023-12-20T06:16:17;99658.28;;;-0.44;100.00
49102;BME280;34913;47.520;19.186;2023-12-20T06:18:43;99674.84;;;-0.45;100.00
49102;BME280;34913;47.520;19.186;2023-12-20T06:21:08;99662.41;;;-0.38;100.00
49102;BME280;34913;47.520;19.186;2023-12-20T06:23:39;99655.50;;;-0.60;100.00
49102;BME280;34913;47.520;19.186;2023-12-20T06:26:04;99662.25;;;-0.56;100.00
49102;BME280;34913;47.520;19.186;2023-12-20T06:28:30;99660.88;;;-0.64;100.00
49102;BME280;34913;47.520;19.186;2023-12-20T06:30:55;99656.53;;;-0.64;100.00
49102;BME280;34913;47.520;19.186;2023-12-20T06:33:22;99649.50;;;-0.62;100.00
49102;BME280;34913;47.520;19.186;2023-12-20T06:35:48;99654.56;;;-0.59;100.00
49102;BME280;34913;47.520;19.186;2023-12-20T06:38:13;99649.31;;;-0.77;100.00
49102;BME280;34913;47.520;19.186;2023-12-20T06:40:38;99667.50;;;-0.98;100.00
49102;BME280;34913;47.520;19.186;2023-12-20T06:43:04;99677.38;;;-0.84;100.00
49102;BME280;34913;47.520;19.186;2023-12-20T06:45:29;99679.75;;;-0.79;100.00
49102;BME280;34913;47.520;19.186;2023-12-20T06:47:54;99693.47;;;-0.74;100.00
49102;BME280;34913;47.520;19.186;2023-12-20T06:50:20;99699.34;;;-0.49;100.00
49102;BME280;34913;47.520;19.186;2023-12-20T06:52:46;99710.81;;;-0.53;100.00
49102;BME280;34913;47.520;19.186;2023-12-20T06:55:11;99705.16;;;-0.63;100.00
49102;BME280;34913;47.520;19.186;2023-12-20T06:57:36;99704.31;;;-0.63;100.00
49102;BME280;34913;47.520;19.186;2023-12-20T07:00:02;99720.84;;;-0.64;100.00
49102;BME280;34913;47.520;19.186;2023-12-20T07:02:28;99722.00;;;-0.71;100.00
49102;BME280;34913;47.520;19.186;2023-12-20T07:04:55;99723.66;;;-0.69;100.00
49102;BME280;34913;47.520;19.186;2023-12-20T07:07:21;99709.56;;;-0.65;100.00
49102;BME280;34913;47.520;19.186;2023-12-20T07:09:48;99712.16;;;-0.85;100.00
49102;BME280;34913;47.520;19.186;2023-12-20T07:12:13;99719.66;;;-0.99;100.00
49102;BME280;34913;47.520;19.186;2023-12-20T07:14:39;99718.50;;;-1.14;100.00
49102;BME280;34913;47.520;19.186;2023-12-20T07:17:04;99706.63;;;-1.21;100.00
49102;BME280;34913;47.520;19.186;2023-12-20T07:19:29;99718.19;;;-1.28;100.00
49102;BME280;34913;47.520;19.186;2023-12-20T07:21:54;99723.00;;;-1.18;100.00
49102;BME280;34913;47.520;19.186;2023-12-20T07:24:20;99714.81;;;-1.08;100.00
49102;BME280;34913;47.520;19.186;2023-12-20T07:26:45;99700.53;;;-1.20;100.00
49102;BME280;34913;47.520;19.186;2023-12-20T07:29:10;99700.19;;;-1.34;100.00
49102;BME280;34913;47.520;19.186;2023-12-20T07:31:36;99700.53;;;-1.42;100.00
49102;BME280;34913;47.520;19.186;2023-12-20T07:34:01;99704.09;;;-1.23;100.00
49102;BME280;34913;47.520;19.186;2023-12-20T07:36:26;99707.63;;;-1.02;100.00
49102;BME280;34913;47.520;19.186;2023-12-20T07:38:52;99705.66;;;-0.97;100.00
49102;BME280;34913;47.520;19.186;2023-12-20T07:41:17;99717.22;;;-1.04;100.00
49102;BME280;34913;47.520;19.186;2023-12-20T07:43:46;99719.00;;;-1.26;100.00
49102;BME280;34913;47.520;19.186;2023-12-20T07:46:11;99719.56;;;-1.18;100.00
49102;BME280;34913;47.520;19.186;2023-12-20T07:48:37;99710.09;;;-0.99;100.00
49102;BME280;34913;47.520;19.186;2023-12-20T07:51:04;99704.97;;;-0.80;100.00
49102;BME280;34913;47.520;19.186;2023-12-20T07:53:31;99693.47;;;-0.74;100.00
49102;BME280;34913;47.520;19.186;2023-12-20T07:55:56;99694.41;;;-0.97;100.00
49102;BME280;34913;47.520;19.186;2023-12-20T07:58:21;99678.06;;;-1.01;100.00
49102;BME280;34913;47.520;19.186;2023-12-20T08:00:47;99691.09;;;-1.01;100.00
49102;BME280;34913;47.520;19.186;2023-12-20T08:03:12;99686.59;;;-1.19;100.00
49102;BME280;34913;47.520;19.186;2023-12-20T08:05:38;99682.97;;;-1.15;100.00
49102;BME280;34913;47.520;19.186;2023-12-20T08:08:06;99675.75;;;-1.08;100.00
49102;BME280;34913;47.520;19.186;2023-12-20T08:10:31;99684.91;;;-0.98;100.00
49102;BME280;34913;47.520;19.186;2023-12-20T08:12:57;99687.56;;;-1.00;100.00
49102;BME280;34913;47.520;19.186;2023-12-20T08:15:22;99692.63;;;-0.97;100.00
49102;BME280;34913;47.520;19.186;2023-12-20T08:17:48;99678.78;;;-0.97;100.00
49102;BME280;34913;47.520;19.186;2023-12-20T08:20:16;99676.09;;;-0.96;100.00
49102;BME280;34913;47.520;19.186;2023-12-20T08:22:41;99691.69;;;-0.74;100.00
49102;BME280;34913;47.520;19.186;2023-12-20T08:25:07;99688.47;;;-0.59;100.00
49102;BME280;34913;47.520;19.186;2023-12-20T08:27:33;99680.97;;;-0.66;100.00
49102;BME280;34913;47.520;19.186;2023-12-20T08:29:59;99664.31;;;-0.62;100.00
49102;BME280;34913;47.520;19.186;2023-12-20T08:32:27;99674.19;;;-0.70;100.00
49102;BME280;34913;47.520;19.186;2023-12-20T08:34:52;99686.38;;;-0.71;100.00
49102;BME280;34913;47.520;19.186;2023-12-20T08:37:17;99693.16;;;-0.46;100.00
49102;BME280;34913;47.520;19.186;2023-12-20T08:39:43;99692.84;;;-0.39;100.00
49102;BME280;34913;47.520;19.186;2023-12-20T08:42:09;99695.50;;;-0.20;100.00
49102;BME280;34913;47.520;19.186;2023-12-20T08:44:34;99686.50;;;-0.13;100.00
49102;BME280;34913;47.520;19.186;2023-12-20T08:46:59;99683.44;;;-0.22;100.00
49102;BME280;34913;47.520;19.186;2023-12-20T08:49:25;99690.47;;;-0.24;100.00
49102;BME280;34913;47.520;19.186;2023-12-20T08:51:50;99698.59;;;-0.31;100.00
49102;BME280;34913;47.520;19.186;2023-12-20T08:54:16;99695.91;;;-0.29;100.00
49102;BME280;34913;47.520;19.186;2023-12-20T08:56:42;99692.72;;;-0.36;100.00
49102;BME280;34913;47.520;19.186;2023-12-20T08:59:08;99691.53;;;-0.29;100.00
49102;BME280;34913;47.520;19.186;2023-12-20T09:01:34;99685.50;;;-0.10;100.00
49102;BME280;34913;47.520;19.186;2023-12-20T09:04:00;99688.97;;;-0.10;100.00
49102;BME280;34913;47.520;19.186;2023-12-20T09:06:25;99675.81;;;-0.07;100.00
49102;BME280;34913;47.520;19.186;2023-12-20T09:08:51;99692.63;;;-0.14;100.00
49102;BME280;34913;47.520;19.186;2023-12-20T09:11:17;99698.03;;;-0.18;100.00
49102;BME280;34913;47.520;19.186;2023-12-20T09:13:43;99679.84;;;0.01;100.00
49102;BME280;34913;47.520;19.186;2023-12-20T09:16:09;99687.03;;;0.14;100.00
49102;BME280;34913;47.520;19.186;2023-12-20T09:18:35;99679.13;;;0.16;100.00
49102;BME280;34913;47.520;19.186;2023-12-20T09:21:00;99663.00;;;0.26;100.00
49102;BME280;34913;47.520;19.186;2023-12-20T09:23:25;99678.22;;;0.36;100.00
49102;BME280;34913;47.520;19.186;2023-12-20T09:25:51;99683.88;;;0.26;100.00
49102;BME280;34913;47.520;19.186;2023-12-20T09:28:16;99682.03;;;0.28;100.00
49102;BME280;34913;47.520;19.186;2023-12-20T09:30:42;99682.69;;;0.34;100.00
49102;BME280;34913;47.520;19.186;2023-12-20T09:33:07;99665.50;;;0.47;100.00
49102;BME280;34913;47.520;19.186;2023-12-20T09:35:33;99656.41;;;0.37;100.00
49102;BME280;34913;47.520;19.186;2023-12-20T09:37:58;99659.72;;;0.21;100.00
49102;BME280;34913;47.520;19.186;2023-12-20T09:40:26;99653.34;;;-0.11;100.00
49102;BME280;34913;47.520;19.186;2023-12-20T09:43:14;99645.84;;;-0.37;100.00
49102;BME280;34913;47.520;19.186;2023-12-20T09:45:41;99633.66;;;-0.37;100.00
49102;BME280;34913;47.520;19.186;2023-12-20T09:48:07;99648.41;;;-0.17;100.00
49102;BME280;34913;47.520;19.186;2023-12-20T09:50:32;99642.59;;;-0.03;100.00
49102;BME280;34913;47.520;19.186;2023-12-20T09:53:00;99644.03;;;-0.16;100.00
49102;BME280;34913;47.520;19.186;2023-12-20T09:55:27;99640.88;;;-0.23;100.00
49102;BME280;34913;47.520;19.186;2023-12-20T09:57:55;99634.16;;;-0.29;100.00
49102;BME280;34913;47.520;19.186;2023-12-20T10:00:21;99637.97;;;-0.17;100.00
49102;BME280;34913;47.520;19.186;2023-12-20T10:02:59;99623.16;;;-0.16;100.00
49102;BME280;34913;47.520;19.186;2023-12-20T10:05:32;99625.50;;;-0.10;100.00
49102;BME280;34913;47.520;19.186;2023-12-20T10:07:59;99621.88;;;-0.06;100.00
49102;BME280;34913;47.520;19.186;2023-12-20T10:10:25;99615.91;;;-0.10;100.00
49102;BME280;34913;47.520;19.186;2023-12-20T10:13:10;99607.75;;;-0.02;100.00
49102;BME280;34913;47.520;19.186;2023-12-20T10:15:37;99608.81;;;-0.06;100.00
49102;BME280;34913;47.520;19.186;2023-12-20T10:18:03;99612.47;;;-0.10;100.00
49102;BME280;34913;47.520;19.186;2023-12-20T10:20:29;99606.56;;;0.05;100.00
49102;BME280;34913;47.520;19.186;2023-12-20T10:22:56;99603.81;;;0.27;100.00
49102;BME280;34913;47.520;19.186;2023-12-20T10:25:22;99607.19;;;0.48;100.00
49102;BME280;34913;47.520;19.186;2023-12-20T10:27:47;99606.69;;;0.40;100.00
49102;BME280;34913;47.520;19.186;2023-12-20T10:30:14;99608.44;;;0.39;100.00
49102;BME280;34913;47.520;19.186;2023-12-20T10:32:39;99600.47;;;0.42;100.00
49102;BME280;34913;47.520;19.186;2023-12-20T10:35:06;99588.91;;;0.29;100.00
49102;BME280;34913;47.520;19.186;2023-12-20T10:37:35;99560.66;;;0.01;100.00
49102;BME280;34913;47.520;19.186;2023-12-20T10:40:03;99553.38;;;0.08;100.00
49102;BME280;34913;47.520;19.186;2023-12-20T10:42:29;99552.16;;;0.15;100.00
49102;BME280;34913;47.520;19.186;2023-12-20T10:44:56;99548.19;;;0.44;100.00
49102;BME280;34913;47.520;19.186;2023-12-20T10:47:22;99534.94;;;0.66;100.00
49102;BME280;34913;47.520;19.186;2023-12-20T10:49:52;99539.31;;;0.82;100.00
49102;BME280;34913;47.520;19.186;2023-12-20T10:52:17;99538.22;;;0.87;100.00
49102;BME280;34913;47.520;19.186;2023-12-20T10:54:43;99534.94;;;0.83;100.00
49102;BME280;34913;47.520;19.186;2023-12-20T10:57:09;99533.69;;;0.90;100.00
49102;BME280;34913;47.520;19.186;2023-12-20T10:59:37;99515.38;;;1.07;100.00
49102;BME280;34913;47.520;19.186;2023-12-20T11:02:03;99522.59;;;1.02;100.00
49102;BME280;34913;47.520;19.186;2023-12-20T11:04:55;99522.22;;;1.10;100.00
49102;BME280;34913;47.520;19.186;2023-12-20T11:07:25;99529.88;;;1.30;100.00
49102;BME280;34913;47.520;19.186;2023-12-20T11:10:18;99536.50;;;1.37;100.00
49102;BME280;34913;47.520;19.186;2023-12-20T11:12:54;99534.13;;;1.66;100.00
49102;BME280;34913;47.520;19.186;2023-12-20T11:15:22;99530.81;;;1.78;100.00
49102;BME280;34913;47.520;19.186;2023-12-20T11:17:57;99518.69;;;1.93;100.00
49102;BME280;34913;47.520;19.186;2023-12-20T11:20:24;99517.84;;;2.08;100.00
49102;BME280;34913;47.520;19.186;2023-12-20T11:22:54;99506.75;;;2.19;100.00
49102;BME280;34913;47.520;19.186;2023-12-20T11:25:20;99491.31;;;2.14;100.00
49102;BME280;34913;47.520;19.186;2023-12-20T11:28:09;99491.25;;;2.16;100.00
49102;BME280;34913;47.520;19.186;2023-12-20T11:31:01;99487.44;;;2.21;100.00
49102;BME280;34913;47.520;19.186;2023-12-20T11:33:35;99486.50;;;2.22;100.00
49102;BME280;34913;47.520;19.186;2023-12-20T11:36:01;99480.16;;;2.27;100.00
49102;BME280;34913;47.520;19.186;2023-12-20T11:38:27;99466.63;;;2.34;100.00
49102;BME280;34913;47.520;19.186;2023-12-20T11:40:54;99460.19;;;2.40;100.00
49102;BME280;34913;47.520;19.186;2023-12-20T11:43:30;99464.81;;;2.50;100.00
49102;BME280;34913;47.520;19.186;2023-12-20T11:46:02;99452.22;;;2.71;100.00
49102;BME280;34913;47.520;19.186;2023-12-20T11:48:28;99466.31;;;2.85;100.00
49102;BME280;34913;47.520;19.186;2023-12-20T11:50:53;99473.56;;;2.65;100.00
49102;BME280;34913;47.520;19.186;2023-12-20T11:53:19;99463.75;;;2.69;100.00
49102;BME280;34913;47.520;19.186;2023-12-20T11:55:48;99478.13;;;3.06;100.00
49102;BME280;34913;47.520;19.186;2023-12-20T11:58:14;99463.13;;;3.22;100.00
49102;BME280;34913;47.520;19.186;2023-12-20T12:00:41;99441.78;;;2.86;100.00
49102;BME280;34913;47.520;19.186;2023-12-20T12:03:06;99470.16;;;2.93;100.00
49102;BME280;34913;47.520;19.186;2023-12-20T12:05:31;99465.19;;;3.46;100.00
49102;BME280;34913;47.520;19.186;2023-12-20T12:07:58;99457.09;;;3.63;100.00
49102;BME280;34913;47.520;19.186;2023-12-20T12:10:23;99457.91;;;3.92;100.00
49102;BME280;34913;47.520;19.186;2023-12-20T12:12:49;99453.06;;;4.13;100.00
49102;BME280;34913;47.520;19.186;2023-12-20T12:15:15;99454.19;;;4.36;100.00
49102;BME280;34913;47.520;19.186;2023-12-20T12:17:40;99449.59;;;4.52;100.00
49102;BME280;34913;47.520;19.186;2023-12-20T12:20:07;99441.00;;;4.63;100.00
49102;BME280;34913;47.520;19.186;2023-12-20T12:22:33;99441.47;;;4.82;99.50
49102;BME280;34913;47.520;19.186;2023-12-20T12:25:09;99437.88;;;4.83;99.60
49102;BME280;34913;47.520;19.186;2023-12-20T12:27:35;99440.63;;;5.07;100.00
49102;BME280;34913;47.520;19.186;2023-12-20T12:30:04;99442.94;;;4.99;100.00
49102;BME280;34913;47.520;19.186;2023-12-20T12:32:32;99438.19;;;5.04;99.11
49102;BME280;34913;47.520;19.186;2023-12-20T12:34:57;99440.50;;;5.09;98.96